Bramford, United Kingdom
Current Conditions -  °F | °C
As of 9:50 PM on Monday 24 Nov 2014 (Local Time) from EGUW Reporting Station
Moderate Fog Moderate Fog  
Wind Chill: 36°   Ceiling: Unl
Heat Index: 36°   Visibility: 0.12mi
Dew Point: 36°   Wind: 3mph
Humidity: 100%   Direction: 260°W
Pressure: 30.33"   Gusts: NA
Location:  52.08°N, 1.1°E
Report Text: EGUW 242150Z 26003KT 0200 FG SKC 02/02 Q1027 RED NOSIG
Loading
Personal Weather Stations






























Interactive Weather Map New forecast layout! Learn more

10-Day Weather Forecast

Advertisements
Track Severe Weather on mobile